sensor_id;sensor_type;location;lat;lon;timestamp;P1;durP1;ratioP1;P2;durP2;ratioP2
69280;SDS011;56392;51.082;17.080;2023-02-18T00:00:28;4.95;;;1.10;;
69280;SDS011;56392;51.082;17.080;2023-02-18T00:05:56;5.53;;;1.10;;
69280;SDS011;56392;51.082;17.080;2023-02-18T00:11:20;6.10;;;1.30;;
69280;SDS011;56392;51.082;17.080;2023-02-18T00:16:44;6.03;;;1.10;;
69280;SDS011;56392;51.082;17.080;2023-02-18T00:22:08;3.87;;;0.80;;
69280;SDS011;56392;51.082;17.080;2023-02-18T00:27:31;5.17;;;0.73;;
69280;SDS011;56392;51.082;17.080;2023-02-18T00:32:54;4.10;;;0.80;;
69280;SDS011;56392;51.082;17.080;2023-02-18T00:38:19;4.70;;;0.80;;
69280;SDS011;56392;51.082;17.080;2023-02-18T00:43:42;6.17;;;0.90;;
69280;SDS011;56392;51.082;17.080;2023-02-18T00:49:06;5.05;;;1.00;;
69280;SDS011;56392;51.082;17.080;2023-02-18T00:54:30;3.85;;;0.73;;
69280;SDS011;56392;51.082;17.080;2023-02-18T00:59:54;5.63;;;0.80;;
69280;SDS011;56392;51.082;17.080;2023-02-18T01:05:17;4.15;;;0.70;;
69280;SDS011;56392;51.082;17.080;2023-02-18T01:10:42;4.13;;;0.60;;
69280;SDS011;56392;51.082;17.080;2023-02-18T01:16:08;4.00;;;0.80;;
69280;SDS011;56392;51.082;17.080;2023-02-18T01:21:32;3.33;;;0.60;;
69280;SDS011;56392;51.082;17.080;2023-02-18T01:26:56;1.75;;;0.50;;
69280;SDS011;56392;51.082;17.080;2023-02-18T01:32:19;4.65;;;0.70;;
69280;SDS011;56392;51.082;17.080;2023-02-18T01:37:43;3.87;;;0.60;;
69280;SDS011;56392;51.082;17.080;2023-02-18T01:43:09;3.72;;;0.50;;
69280;SDS011;56392;51.082;17.080;2023-02-18T01:48:35;4.97;;;0.60;;
69280;SDS011;56392;51.082;17.080;2023-02-18T01:54:01;4.27;;;0.60;;
69280;SDS011;56392;51.082;17.080;2023-02-18T01:59:30;3.25;;;0.60;;
69280;SDS011;56392;51.082;17.080;2023-02-18T02:04:58;2.28;;;0.50;;
69280;SDS011;56392;51.082;17.080;2023-02-18T02:10:22;4.37;;;0.60;;
69280;SDS011;56392;51.082;17.080;2023-02-18T02:15:48;4.83;;;0.70;;
69280;SDS011;56392;51.082;17.080;2023-02-18T02:21:35;2.75;;;0.60;;
69280;SDS011;56392;51.082;17.080;2023-02-18T02:27:24;6.22;;;0.80;;
69280;SDS011;56392;51.082;17.080;2023-02-18T02:38:50;4.28;;;0.70;;
69280;SDS011;56392;51.082;17.080;2023-02-18T02:44:19;5.03;;;0.80;;
69280;SDS011;56392;51.082;17.080;2023-02-18T02:49:47;3.63;;;0.70;;
69280;SDS011;56392;51.082;17.080;2023-02-18T02:55:17;4.28;;;0.70;;
69280;SDS011;56392;51.082;17.080;2023-02-18T03:00:53;3.85;;;0.50;;
69280;SDS011;56392;51.082;17.080;2023-02-18T03:06:26;5.03;;;0.60;;
69280;SDS011;56392;51.082;17.080;2023-02-18T03:12:15;6.00;;;0.77;;
69280;SDS011;56392;51.082;17.080;2023-02-18T03:17:45;6.45;;;0.52;;
69280;SDS011;56392;51.082;17.080;2023-02-18T03:23:14;4.00;;;0.57;;
69280;SDS011;56392;51.082;17.080;2023-02-18T03:28:42;3.60;;;0.60;;
69280;SDS011;56392;51.082;17.080;2023-02-18T03:34:10;4.18;;;0.65;;
69280;SDS011;56392;51.082;17.080;2023-02-18T03:39:38;3.85;;;0.50;;
69280;SDS011;56392;51.082;17.080;2023-02-18T03:45:06;3.53;;;0.50;;
69280;SDS011;56392;51.082;17.080;2023-02-18T03:50:31;5.07;;;0.70;;
69280;SDS011;56392;51.082;17.080;2023-02-18T03:55:54;6.38;;;0.63;;
69280;SDS011;56392;51.082;17.080;2023-02-18T04:01:19;4.23;;;0.50;;
69280;SDS011;56392;51.082;17.080;2023-02-18T04:06:42;4.33;;;0.60;;
69280;SDS011;56392;51.082;17.080;2023-02-18T04:12:05;3.55;;;0.43;;
69280;SDS011;56392;51.082;17.080;2023-02-18T04:17:30;4.97;;;0.60;;
69280;SDS011;56392;51.082;17.080;2023-02-18T04:22:55;3.00;;;0.50;;
69280;SDS011;56392;51.082;17.080;2023-02-18T04:28:18;5.00;;;0.60;;
69280;SDS011;56392;51.082;17.080;2023-02-18T04:33:43;4.45;;;0.75;;
69280;SDS011;56392;51.082;17.080;2023-02-18T04:39:06;4.47;;;0.73;;
69280;SDS011;56392;51.082;17.080;2023-02-18T04:44:29;2.75;;;0.50;;
69280;SDS011;56392;51.082;17.080;2023-02-18T04:49:54;6.18;;;0.70;;
69280;SDS011;56392;51.082;17.080;2023-02-18T04:55:17;3.83;;;0.40;;
69280;SDS011;56392;51.082;17.080;2023-02-18T05:00:41;4.73;;;0.57;;
69280;SDS011;56392;51.082;17.080;2023-02-18T05:06:05;3.95;;;0.50;;
69280;SDS011;56392;51.082;17.080;2023-02-18T05:11:29;3.95;;;0.60;;
69280;SDS011;56392;51.082;17.080;2023-02-18T05:16:52;2.47;;;0.50;;
69280;SDS011;56392;51.082;17.080;2023-02-18T05:22:17;4.25;;;0.60;;
69280;SDS011;56392;51.082;17.080;2023-02-18T05:27:40;5.90;;;0.70;;
69280;SDS011;56392;51.082;17.080;2023-02-18T05:33:04;5.37;;;0.60;;
69280;SDS011;56392;51.082;17.080;2023-02-18T05:38:29;2.45;;;0.50;;
69280;SDS011;56392;51.082;17.080;2023-02-18T05:43:52;6.38;;;0.70;;
69280;SDS011;56392;51.082;17.080;2023-02-18T05:49:33;5.20;;;0.50;;
69280;SDS011;56392;51.082;17.080;2023-02-18T05:54:59;5.57;;;0.70;;
69280;SDS011;56392;51.082;17.080;2023-02-18T06:00:24;4.07;;;0.60;;
69280;SDS011;56392;51.082;17.080;2023-02-18T06:05:50;4.38;;;0.80;;
69280;SDS011;56392;51.082;17.080;2023-02-18T06:11:16;3.83;;;0.40;;
69280;SDS011;56392;51.082;17.080;2023-02-18T06:16:39;5.07;;;0.68;;
69280;SDS011;56392;51.082;17.080;2023-02-18T06:22:02;6.43;;;0.70;;
69280;SDS011;56392;51.082;17.080;2023-02-18T06:27:27;4.77;;;0.60;;
69280;SDS011;56392;51.082;17.080;2023-02-18T06:32:50;5.53;;;0.68;;
69280;SDS011;56392;51.082;17.080;2023-02-18T06:38:16;7.80;;;0.88;;
69280;SDS011;56392;51.082;17.080;2023-02-18T06:43:42;4.00;;;0.60;;
69280;SDS011;56392;51.082;17.080;2023-02-18T06:49:06;4.50;;;0.60;;
69280;SDS011;56392;51.082;17.080;2023-02-18T06:54:29;4.15;;;0.57;;
69280;SDS011;56392;51.082;17.080;2023-02-18T06:59:53;5.30;;;0.60;;
69280;SDS011;56392;51.082;17.080;2023-02-18T07:05:17;5.07;;;0.40;;
69280;SDS011;56392;51.082;17.080;2023-02-18T07:10:40;5.15;;;0.88;;
69280;SDS011;56392;51.082;17.080;2023-02-18T07:16:05;5.68;;;0.60;;
69280;SDS011;56392;51.082;17.080;2023-02-18T07:21:28;4.43;;;0.70;;
69280;SDS011;56392;51.082;17.080;2023-02-18T07:26:51;5.30;;;0.60;;
69280;SDS011;56392;51.082;17.080;2023-02-18T07:32:17;4.63;;;0.50;;
69280;SDS011;56392;51.082;17.080;2023-02-18T07:37:42;3.47;;;0.60;;
69280;SDS011;56392;51.082;17.080;2023-02-18T07:43:06;3.33;;;0.50;;
69280;SDS011;56392;51.082;17.080;2023-02-18T07:48:31;3.67;;;0.60;;
69280;SDS011;56392;51.082;17.080;2023-02-18T07:53:54;5.25;;;0.80;;
69280;SDS011;56392;51.082;17.080;2023-02-18T07:59:17;5.77;;;0.70;;
69280;SDS011;56392;51.082;17.080;2023-02-18T08:04:42;5.43;;;0.70;;
69280;SDS011;56392;51.082;17.080;2023-02-18T08:10:06;4.57;;;0.75;;
69280;SDS011;56392;51.082;17.080;2023-02-18T08:15:29;3.90;;;0.63;;
69280;SDS011;56392;51.082;17.080;2023-02-18T08:20:54;3.88;;;0.60;;
69280;SDS011;56392;51.082;17.080;2023-02-18T08:26:17;4.10;;;0.65;;
69280;SDS011;56392;51.082;17.080;2023-02-18T08:31:41;4.77;;;0.70;;
69280;SDS011;56392;51.082;17.080;2023-02-18T08:37:08;5.10;;;0.90;;
69280;SDS011;56392;51.082;17.080;2023-02-18T08:42:32;3.95;;;0.60;;
69280;SDS011;56392;51.082;17.080;2023-02-18T08:47:55;6.47;;;1.00;;
69280;SDS011;56392;51.082;17.080;2023-02-18T08:53:20;4.87;;;0.70;;
69280;SDS011;56392;51.082;17.080;2023-02-18T08:58:43;5.18;;;0.73;;
69280;SDS011;56392;51.082;17.080;2023-02-18T09:04:06;4.55;;;0.60;;
69280;SDS011;56392;51.082;17.080;2023-02-18T09:09:31;4.90;;;1.07;;
69280;SDS011;56392;51.082;17.080;2023-02-18T09:14:54;3.78;;;0.70;;
69280;SDS011;56392;51.082;17.080;2023-02-18T09:20:18;6.60;;;0.70;;
69280;SDS011;56392;51.082;17.080;2023-02-18T09:25:42;3.43;;;0.50;;
69280;SDS011;56392;51.082;17.080;2023-02-18T09:31:06;4.90;;;0.60;;
69280;SDS011;56392;51.082;17.080;2023-02-18T09:36:31;4.10;;;0.70;;
69280;SDS011;56392;51.082;17.080;2023-02-18T09:41:56;6.10;;;0.80;;
69280;SDS011;56392;51.082;17.080;2023-02-18T09:47:24;4.37;;;0.60;;
69280;SDS011;56392;51.082;17.080;2023-02-18T09:52:52;5.75;;;0.80;;
69280;SDS011;56392;51.082;17.080;2023-02-18T09:58:18;4.78;;;0.77;;
69280;SDS011;56392;51.082;17.080;2023-02-18T10:03:42;3.87;;;0.63;;
69280;SDS011;56392;51.082;17.080;2023-02-18T10:09:09;5.18;;;0.80;;
69280;SDS011;56392;51.082;17.080;2023-02-18T10:14:39;3.85;;;0.80;;
69280;SDS011;56392;51.082;17.080;2023-02-18T10:20:04;7.47;;;1.00;;
69280;SDS011;56392;51.082;17.080;2023-02-18T10:25:29;5.83;;;1.00;;
69280;SDS011;56392;51.082;17.080;2023-02-18T10:30:56;4.88;;;0.73;;
69280;SDS011;56392;51.082;17.080;2023-02-18T10:36:24;9.32;;;1.40;;
69280;SDS011;56392;51.082;17.080;2023-02-18T10:41:51;7.13;;;0.97;;
69280;SDS011;56392;51.082;17.080;2023-02-18T10:47:35;5.68;;;1.13;;
69280;SDS011;56392;51.082;17.080;2023-02-18T10:53:01;7.75;;;1.30;;
69280;SDS011;56392;51.082;17.080;2023-02-18T10:58:33;5.50;;;1.10;;
69280;SDS011;56392;51.082;17.080;2023-02-18T11:04:10;6.50;;;1.15;;
69280;SDS011;56392;51.082;17.080;2023-02-18T11:09:38;5.20;;;1.02;;
69280;SDS011;56392;51.082;17.080;2023-02-18T11:15:14;7.80;;;1.10;;
69280;SDS011;56392;51.082;17.080;2023-02-18T11:20:40;8.83;;;1.57;;
69280;SDS011;56392;51.082;17.080;2023-02-18T11:26:16;6.97;;;1.30;;
69280;SDS011;56392;51.082;17.080;2023-02-18T11:31:45;8.60;;;1.50;;
69280;SDS011;56392;51.082;17.080;2023-02-18T11:37:12;10.47;;;1.60;;
69280;SDS011;56392;51.082;17.080;2023-02-18T11:42:40;8.43;;;1.67;;
69280;SDS011;56392;51.082;17.080;2023-02-18T11:48:05;7.72;;;1.50;;
69280;SDS011;56392;51.082;17.080;2023-02-18T11:53:31;11.07;;;1.60;;
69280;SDS011;56392;51.082;17.080;2023-02-18T11:58:57;10.70;;;2.63;;
69280;SDS011;56392;51.082;17.080;2023-02-18T12:04:23;12.00;;;3.40;;
69280;SDS011;56392;51.082;17.080;2023-02-18T12:09:53;9.70;;;2.17;;
69280;SDS011;56392;51.082;17.080;2023-02-18T12:15:21;9.93;;;2.57;;
69280;SDS011;56392;51.082;17.080;2023-02-18T12:27:00;12.68;;;4.00;;
69280;SDS011;56392;51.082;17.080;2023-02-18T12:32:36;10.17;;;2.83;;
69280;SDS011;56392;51.082;17.080;2023-02-18T12:44:02;12.65;;;3.45;;
69280;SDS011;56392;51.082;17.080;2023-02-18T12:49:41;12.57;;;4.00;;
69280;SDS011;56392;51.082;17.080;2023-02-18T12:55:26;12.48;;;4.63;;
69280;SDS011;56392;51.082;17.080;2023-02-18T13:01:12;11.82;;;4.13;;
69280;SDS011;56392;51.082;17.080;2023-02-18T13:06:56;13.70;;;3.83;;
69280;SDS011;56392;51.082;17.080;2023-02-18T13:12:42;11.83;;;3.93;;
69280;SDS011;56392;51.082;17.080;2023-02-18T13:23:39;13.63;;;4.30;;
69280;SDS011;56392;51.082;17.080;2023-02-18T13:29:15;12.98;;;5.10;;
69280;SDS011;56392;51.082;17.080;2023-02-18T13:34:47;13.47;;;5.00;;
69280;SDS011;56392;51.082;17.080;2023-02-18T13:40:17;13.18;;;5.05;;
69280;SDS011;56392;51.082;17.080;2023-02-18T13:45:49;14.35;;;5.40;;
69280;SDS011;56392;51.082;17.080;2023-02-18T13:51:26;13.23;;;5.57;;
69280;SDS011;56392;51.082;17.080;2023-02-18T13:56:54;14.70;;;5.63;;
69280;SDS011;56392;51.082;17.080;2023-02-18T14:02:28;12.32;;;4.93;;
69280;SDS011;56392;51.082;17.080;2023-02-18T14:08:04;19.80;;;6.60;;
69280;SDS011;56392;51.082;17.080;2023-02-18T14:13:40;16.37;;;5.97;;
69280;SDS011;56392;51.082;17.080;2023-02-18T14:19:22;17.23;;;6.15;;
69280;SDS011;56392;51.082;17.080;2023-02-18T14:24:53;13.35;;;5.90;;
69280;SDS011;56392;51.082;17.080;2023-02-18T14:30:25;16.20;;;5.83;;
69280;SDS011;56392;51.082;17.080;2023-02-18T14:35:55;16.08;;;5.93;;
69280;SDS011;56392;51.082;17.080;2023-02-18T14:41:27;17.60;;;6.50;;
69280;SDS011;56392;51.082;17.080;2023-02-18T14:47:09;24.13;;;8.17;;
69280;SDS011;56392;51.082;17.080;2023-02-18T14:52:40;20.50;;;8.03;;
69280;SDS011;56392;51.082;17.080;2023-02-18T14:58:07;22.33;;;8.63;;
69280;SDS011;56392;51.082;17.080;2023-02-18T15:03:39;26.17;;;10.93;;
69280;SDS011;56392;51.082;17.080;2023-02-18T15:09:12;22.83;;;9.83;;
69280;SDS011;56392;51.082;17.080;2023-02-18T15:14:36;18.70;;;8.13;;
69280;SDS011;56392;51.082;17.080;2023-02-18T15:20:03;18.77;;;6.97;;
69280;SDS011;56392;51.082;17.080;2023-02-18T15:25:30;16.97;;;6.60;;
69280;SDS011;56392;51.082;17.080;2023-02-18T15:30:54;10.48;;;3.60;;
69280;SDS011;56392;51.082;17.080;2023-02-18T15:36:20;10.73;;;2.42;;
69280;SDS011;56392;51.082;17.080;2023-02-18T15:41:43;6.47;;;1.77;;
69280;SDS011;56392;51.082;17.080;2023-02-18T15:47:07;9.17;;;2.83;;
69280;SDS011;56392;51.082;17.080;2023-02-18T15:52:32;5.97;;;1.80;;
69280;SDS011;56392;51.082;17.080;2023-02-18T15:58:00;3.92;;;1.10;;
69280;SDS011;56392;51.082;17.080;2023-02-18T16:03:26;4.13;;;1.03;;
69280;SDS011;56392;51.082;17.080;2023-02-18T16:08:56;7.10;;;1.10;;
69280;SDS011;56392;51.082;17.080;2023-02-18T16:14:25;6.60;;;1.95;;
69280;SDS011;56392;51.082;17.080;2023-02-18T16:19:51;5.00;;;1.20;;
69280;SDS011;56392;51.082;17.080;2023-02-18T16:25:20;5.45;;;1.45;;
69280;SDS011;56392;51.082;17.080;2023-02-18T16:30:45;5.18;;;1.40;;
69280;SDS011;56392;51.082;17.080;2023-02-18T16:36:09;5.30;;;1.10;;
69280;SDS011;56392;51.082;17.080;2023-02-18T16:41:37;4.67;;;1.10;;
69280;SDS011;56392;51.082;17.080;2023-02-18T16:47:01;4.47;;;1.10;;
69280;SDS011;56392;51.082;17.080;2023-02-18T16:52:24;3.22;;;0.77;;
69280;SDS011;56392;51.082;17.080;2023-02-18T16:57:49;4.93;;;1.13;;
69280;SDS011;56392;51.082;17.080;2023-02-18T17:03:12;4.70;;;1.05;;
69280;SDS011;56392;51.082;17.080;2023-02-18T17:08:36;7.93;;;1.40;;
69280;SDS011;56392;51.082;17.080;2023-02-18T17:14:01;6.00;;;1.20;;
69280;SDS011;56392;51.082;17.080;2023-02-18T17:19:25;4.85;;;1.10;;
69280;SDS011;56392;51.082;17.080;2023-02-18T17:24:48;5.03;;;1.40;;
69280;SDS011;56392;51.082;17.080;2023-02-18T17:30:13;5.17;;;1.00;;
69280;SDS011;56392;51.082;17.080;2023-02-18T17:35:38;4.80;;;1.00;;
69280;SDS011;56392;51.082;17.080;2023-02-18T17:41:01;4.15;;;1.00;;
69280;SDS011;56392;51.082;17.080;2023-02-18T17:46:26;3.90;;;1.00;;
69280;SDS011;56392;51.082;17.080;2023-02-18T17:51:49;4.83;;;1.00;;
69280;SDS011;56392;51.082;17.080;2023-02-18T17:57:12;6.10;;;2.10;;
69280;SDS011;56392;51.082;17.080;2023-02-18T18:02:37;6.93;;;1.67;;
69280;SDS011;56392;51.082;17.080;2023-02-18T18:08:00;3.93;;;1.03;;
69280;SDS011;56392;51.082;17.080;2023-02-18T18:13:27;3.55;;;0.93;;
69280;SDS011;56392;51.082;17.080;2023-02-18T18:18:54;3.85;;;1.13;;
69280;SDS011;56392;51.082;17.080;2023-02-18T18:24:18;5.13;;;1.17;;
69280;SDS011;56392;51.082;17.080;2023-02-18T18:29:41;4.90;;;1.03;;
69280;SDS011;56392;51.082;17.080;2023-02-18T18:35:10;7.13;;;1.60;;
69280;SDS011;56392;51.082;17.080;2023-02-18T18:40:44;4.85;;;1.15;;
69280;SDS011;56392;51.082;17.080;2023-02-18T18:46:08;4.13;;;0.90;;
69280;SDS011;56392;51.082;17.080;2023-02-18T18:51:32;6.22;;;1.48;;
69280;SDS011;56392;51.082;17.080;2023-02-18T18:56:55;6.05;;;1.35;;
69280;SDS011;56392;51.082;17.080;2023-02-18T19:02:21;5.07;;;1.47;;
69280;SDS011;56392;51.082;17.080;2023-02-18T19:07:46;4.85;;;1.52;;
69280;SDS011;56392;51.082;17.080;2023-02-18T19:13:10;6.20;;;1.80;;
69280;SDS011;56392;51.082;17.080;2023-02-18T19:18:36;4.33;;;1.20;;
69280;SDS011;56392;51.082;17.080;2023-02-18T19:24:01;3.97;;;0.83;;
69280;SDS011;56392;51.082;17.080;2023-02-18T19:29:24;6.18;;;1.20;;
69280;SDS011;56392;51.082;17.080;2023-02-18T19:34:47;5.05;;;1.00;;
69280;SDS011;56392;51.082;17.080;2023-02-18T19:40:12;6.77;;;1.20;;
69280;SDS011;56392;51.082;17.080;2023-02-18T19:45:38;6.43;;;1.30;;
69280;SDS011;56392;51.082;17.080;2023-02-18T19:51:03;6.13;;;1.05;;
69280;SDS011;56392;51.082;17.080;2023-02-18T19:56:28;5.90;;;1.10;;
69280;SDS011;56392;51.082;17.080;2023-02-18T20:01:51;4.28;;;0.98;;
69280;SDS011;56392;51.082;17.080;2023-02-18T20:07:16;4.82;;;1.00;;
69280;SDS011;56392;51.082;17.080;2023-02-18T20:12:42;5.10;;;1.00;;
69280;SDS011;56392;51.082;17.080;2023-02-18T20:18:06;5.80;;;1.40;;
69280;SDS011;56392;51.082;17.080;2023-02-18T20:23:29;6.45;;;1.40;;
69280;SDS011;56392;51.082;17.080;2023-02-18T20:28:54;5.35;;;1.10;;
69280;SDS011;56392;51.082;17.080;2023-02-18T20:34:18;4.07;;;1.07;;
69280;SDS011;56392;51.082;17.080;2023-02-18T20:39:41;6.20;;;0.90;;
69280;SDS011;56392;51.082;17.080;2023-02-18T20:45:07;6.82;;;1.20;;
69280;SDS011;56392;51.082;17.080;2023-02-18T20:50:31;4.60;;;0.90;;
69280;SDS011;56392;51.082;17.080;2023-02-18T20:55:54;5.10;;;1.00;;
69280;SDS011;56392;51.082;17.080;2023-02-18T21:01:19;4.05;;;0.90;;
69280;SDS011;56392;51.082;17.080;2023-02-18T21:06:43;3.77;;;0.90;;
69280;SDS011;56392;51.082;17.080;2023-02-18T21:12:07;6.07;;;2.00;;
69280;SDS011;56392;51.082;17.080;2023-02-18T21:17:34;5.68;;;1.98;;
69280;SDS011;56392;51.082;17.080;2023-02-18T21:22:57;6.75;;;2.15;;
69280;SDS011;56392;51.082;17.080;2023-02-18T21:28:20;4.60;;;1.30;;
69280;SDS011;56392;51.082;17.080;2023-02-18T21:33:45;5.15;;;1.58;;
69280;SDS011;56392;51.082;17.080;2023-02-18T21:39:08;5.47;;;1.52;;
69280;SDS011;56392;51.082;17.080;2023-02-18T21:44:32;5.10;;;1.30;;
69280;SDS011;56392;51.082;17.080;2023-02-18T21:49:56;5.63;;;1.42;;
69280;SDS011;56392;51.082;17.080;2023-02-18T21:55:19;6.05;;;1.70;;
69280;SDS011;56392;51.082;17.080;2023-02-18T22:00:42;5.40;;;1.30;;
69280;SDS011;56392;51.082;17.080;2023-02-18T22:06:09;5.70;;;1.40;;
69280;SDS011;56392;51.082;17.080;2023-02-18T22:11:32;5.57;;;1.60;;
69280;SDS011;56392;51.082;17.080;2023-02-18T22:16:56;5.72;;;1.63;;
69280;SDS011;56392;51.082;17.080;2023-02-18T22:22:22;5.80;;;1.70;;
69280;SDS011;56392;51.082;17.080;2023-02-18T22:27:45;6.40;;;1.80;;
69280;SDS011;56392;51.082;17.080;2023-02-18T22:33:08;5.97;;;1.88;;
69280;SDS011;56392;51.082;17.080;2023-02-18T22:38:33;6.33;;;1.80;;
69280;SDS011;56392;51.082;17.080;2023-02-18T22:43:57;6.15;;;2.20;;
69280;SDS011;56392;51.082;17.080;2023-02-18T22:49:21;6.90;;;2.10;;
69280;SDS011;56392;51.082;17.080;2023-02-18T22:54:46;7.00;;;2.00;;
69280;SDS011;56392;51.082;17.080;2023-02-18T23:00:09;6.07;;;1.90;;
69280;SDS011;56392;51.082;17.080;2023-02-18T23:05:33;6.20;;;1.90;;
69280;SDS011;56392;51.082;17.080;2023-02-18T23:11:01;5.93;;;2.00;;
69280;SDS011;56392;51.082;17.080;2023-02-18T23:16:25;8.97;;;2.73;;
69280;SDS011;56392;51.082;17.080;2023-02-18T23:21:49;7.22;;;2.58;;
69280;SDS011;56392;51.082;17.080;2023-02-18T23:27:13;6.95;;;2.30;;
69280;SDS011;56392;51.082;17.080;2023-02-18T23:32:37;7.17;;;2.50;;
69280;SDS011;56392;51.082;17.080;2023-02-18T23:38:00;6.95;;;2.70;;
69280;SDS011;56392;51.082;17.080;2023-02-18T23:43:30;7.45;;;2.70;;
69280;SDS011;56392;51.082;17.080;2023-02-18T23:48:53;10.17;;;2.77;;
69280;SDS011;56392;51.082;17.080;2023-02-18T23:54:16;8.43;;;2.97;;
69280;SDS011;56392;51.082;17.080;2023-02-18T23:59:41;7.63;;;2.67;;
